createdAt,value
2023-05-22T00:00:21.504Z,26.56
2023-05-22T00:02:50.796Z,26.67
2023-05-22T00:05:20.602Z,26.70
2023-05-22T00:07:48.678Z,26.89
2023-05-22T00:10:16.863Z,27.10
2023-05-22T00:12:44.834Z,26.76
2023-05-22T00:15:14.467Z,27.15
2023-05-22T00:17:43.183Z,26.73
2023-05-22T00:20:11.952Z,26.99
2023-05-22T00:22:40.975Z,27.02
2023-05-22T00:25:10.316Z,27.16
2023-05-22T00:27:38.488Z,26.56
2023-05-22T00:30:10.225Z,26.51
2023-05-22T00:32:40.489Z,26.60
2023-05-22T00:35:10.190Z,27.18
2023-05-22T00:37:38.355Z,27.07
2023-05-22T00:40:08.784Z,26.73
2023-05-22T00:42:37.052Z,27.05
2023-05-22T00:45:06.668Z,27.09
2023-05-22T00:47:34.945Z,27.50
2023-05-22T00:50:04.757Z,27.01
2023-05-22T00:52:33.290Z,27.16
2023-05-22T00:55:01.606Z,27.21
2023-05-22T00:57:29.859Z,26.35
2023-05-22T00:59:58.799Z,26.91
2023-05-22T01:02:28.463Z,26.28
2023-05-22T01:04:58.108Z,26.80
2023-05-22T01:07:28.323Z,26.68
2023-05-22T01:09:56.437Z,26.73
2023-05-22T01:12:32.403Z,26.83
2023-05-22T01:15:08.924Z,26.55
2023-05-22T01:17:47.708Z,26.65
2023-05-22T01:20:25.259Z,26.43
2023-05-22T01:23:20.855Z,26.77
2023-05-22T01:26:20.876Z,26.31
2023-05-22T01:29:04.752Z,26.47
2023-05-22T01:31:40.273Z,26.61
2023-05-22T01:34:12.151Z,26.22
2023-05-22T01:36:42.694Z,26.39
2023-05-22T01:39:11.489Z,26.35
2023-05-22T01:41:41.725Z,26.15
2023-05-22T01:44:12.356Z,25.72
2023-05-22T01:46:42.229Z,26.20
2023-05-22T01:49:10.574Z,25.87
2023-05-22T01:51:49.217Z,26.22
2023-05-22T01:54:24.200Z,26.20
2023-05-22T01:56:56.248Z,26.21
2023-05-22T01:59:34.118Z,25.80
2023-05-22T02:02:06.500Z,26.23
2023-05-22T02:04:38.982Z,25.78
2023-05-22T02:07:10.759Z,26.21
2023-05-22T02:09:41.648Z,24.95
2023-05-22T02:12:14.121Z,25.23
2023-05-22T02:14:44.353Z,24.86
2023-05-22T02:17:14.425Z,25.69
2023-05-22T02:19:43.879Z,25.34
2023-05-22T02:22:13.886Z,25.36
2023-05-22T02:24:44.277Z,25.39
2023-05-22T02:27:12.547Z,25.37
2023-05-22T02:29:40.863Z,25.40
2023-05-22T02:32:09.771Z,25.46
2023-05-22T02:34:39.595Z,25.73
2023-05-22T02:37:07.599Z,24.63
2023-05-22T02:39:35.744Z,24.98
2023-05-22T02:42:06.382Z,25.52
2023-05-22T02:44:34.802Z,25.22
2023-05-22T02:47:02.978Z,25.63
2023-05-22T02:49:31.137Z,25.46
2023-05-22T02:52:00.775Z,24.77
2023-05-22T02:54:29.120Z,24.80
2023-05-22T02:56:57.462Z,25.09
2023-05-22T02:59:25.447Z,24.67
2023-05-22T03:01:54.641Z,24.95
2023-05-22T03:04:24.588Z,24.90
2023-05-22T03:06:52.890Z,24.72
2023-05-22T03:09:22.507Z,24.99
2023-05-22T03:11:50.619Z,24.49
2023-05-22T03:14:18.885Z,24.97
2023-05-22T03:16:47.254Z,25.13
2023-05-22T03:19:16.476Z,24.98
2023-05-22T03:21:45.230Z,25.04
2023-05-22T03:24:14.420Z,25.03
2023-05-22T03:26:44.109Z,24.48
2023-05-22T03:29:19.043Z,23.98
2023-05-22T03:31:47.889Z,24.33
2023-05-22T03:34:17.001Z,24.42
2023-05-22T03:36:48.353Z,25.21
2023-05-22T03:39:18.177Z,25.09
2023-05-22T03:41:56.817Z,25.24
2023-05-22T03:44:26.005Z,25.36
2023-05-22T03:46:55.489Z,25.21
2023-05-22T03:49:23.680Z,25.52
2023-05-22T03:51:51.924Z,25.19
2023-05-22T03:54:20.183Z,25.56
2023-05-22T03:56:48.513Z,25.60
2023-05-22T03:59:18.265Z,25.60
2023-05-22T04:01:48.856Z,25.30
2023-05-22T04:04:17.738Z,25.17
2023-05-22T04:06:46.014Z,25.78
2023-05-22T04:09:14.891Z,25.63
2023-05-22T04:11:43.071Z,25.36
2023-05-22T04:14:11.390Z,25.87
2023-05-22T04:16:40.695Z,25.45
2023-05-22T04:19:09.626Z,25.27
2023-05-22T04:21:38.308Z,25.23
2023-05-22T04:24:09.489Z,25.57
2023-05-22T04:26:39.436Z,25.38
2023-05-22T04:29:10.461Z,26.14
2023-05-22T04:31:38.407Z,26.43
2023-05-22T04:34:07.957Z,26.23
2023-05-22T04:36:36.072Z,25.70
2023-05-22T04:39:04.187Z,25.55
2023-05-22T04:41:32.519Z,25.78
2023-05-22T04:44:04.019Z,26.49
2023-05-22T04:46:32.306Z,25.93
2023-05-22T04:49:02.295Z,26.70
2023-05-22T04:51:32.899Z,26.45
2023-05-22T04:54:00.894Z,25.86
2023-05-22T04:56:36.147Z,25.90
2023-05-22T04:59:08.826Z,26.73
2023-05-22T05:01:38.049Z,26.89
2023-05-22T05:04:06.548Z,26.80
2023-05-22T05:06:37.844Z,25.80
2023-05-22T05:09:06.439Z,26.05
2023-05-22T05:11:34.816Z,26.54
2023-05-22T05:14:03.310Z,26.07
2023-05-22T05:16:31.585Z,26.44
2023-05-22T05:18:59.871Z,26.57
2023-05-22T05:21:28.568Z,26.77
2023-05-22T05:24:02.906Z,25.89
2023-05-22T05:26:32.636Z,26.79
2023-05-22T05:29:00.692Z,27.17
2023-05-22T05:31:37.169Z,27.15
2023-05-22T05:34:17.843Z,26.17
2023-05-22T05:36:58.327Z,26.41
2023-05-22T05:39:28.616Z,25.75
2023-05-22T05:41:58.117Z,26.13
2023-05-22T05:44:26.387Z,25.85
2023-05-22T05:46:56.424Z,26.66
2023-05-22T05:49:24.797Z,26.54
2023-05-22T05:51:53.183Z,26.55
2023-05-22T05:54:26.296Z,27.38
2023-05-22T05:56:58.628Z,26.94
2023-05-22T05:59:26.804Z,27.34
2023-05-22T06:02:21.051Z,27.27
2023-05-22T06:04:53.823Z,26.90
2023-05-22T06:07:22.196Z,27.75
2023-05-22T06:09:54.756Z,27.53
2023-05-22T06:12:38.588Z,26.87
2023-05-22T06:15:08.680Z,27.10
2023-05-22T06:17:38.294Z,27.68
2023-05-22T06:20:08.621Z,26.70
2023-05-22T06:22:37.643Z,26.45
2023-05-22T06:25:06.913Z,26.73
2023-05-22T06:27:35.610Z,27.12
2023-05-22T06:30:06.115Z,27.59
2023-05-22T06:32:39.172Z,27.08
2023-05-22T06:35:09.761Z,27.57
2023-05-22T06:37:38.825Z,27.31
2023-05-22T06:40:10.155Z,27.11
2023-05-22T06:42:46.674Z,27.13
2023-05-22T06:45:28.287Z,27.47
2023-05-22T06:48:18.964Z,28.50
2023-05-22T06:51:02.982Z,28.39
2023-05-22T06:53:31.398Z,27.92
2023-05-22T06:55:59.568Z,26.99
2023-05-22T06:58:43.729Z,27.73
2023-05-22T07:01:13.658Z,27.47
2023-05-22T07:03:49.483Z,28.17
2023-05-22T07:06:46.429Z,27.95
2023-05-22T07:09:15.629Z,27.76
2023-05-22T07:11:44.059Z,27.39
2023-05-22T07:14:13.847Z,27.32
2023-05-22T07:16:45.176Z,28.02
2023-05-22T07:19:15.898Z,28.81
2023-05-22T07:21:44.086Z,27.78
2023-05-22T07:24:14.299Z,28.78
2023-05-22T07:26:46.411Z,28.74
2023-05-22T07:29:15.690Z,28.04
2023-05-22T07:31:46.648Z,28.72
2023-05-22T07:34:14.905Z,28.19
2023-05-22T07:36:43.396Z,28.52
2023-05-22T07:39:11.438Z,28.82
2023-05-22T07:41:41.972Z,28.96
2023-05-22T07:44:13.637Z,29.40
2023-05-22T07:46:42.430Z,29.87
2023-05-22T07:49:20.401Z,29.33
2023-05-22T07:51:49.224Z,29.22
2023-05-22T07:54:18.301Z,29.21
2023-05-22T07:56:50.172Z,29.37
2023-05-22T07:59:21.619Z,28.88
2023-05-22T08:01:49.501Z,29.13
2023-05-22T08:04:18.921Z,29.17
2023-05-22T08:06:47.277Z,29.02
2023-05-22T08:09:15.323Z,29.22
2023-05-22T08:11:43.565Z,29.51
2023-05-22T08:14:11.563Z,29.33
2023-05-22T08:16:39.696Z,29.90
2023-05-22T08:19:08.329Z,29.44
2023-05-22T08:21:37.995Z,29.64
2023-05-22T08:24:06.313Z,29.31
2023-05-22T08:26:34.280Z,28.52
2023-05-22T08:29:02.683Z,30.29
2023-05-22T08:31:30.854Z,30.05
2023-05-22T08:34:02.473Z,30.10
2023-05-22T08:36:31.360Z,29.86
2023-05-22T08:39:01.216Z,30.08
2023-05-22T08:41:29.390Z,30.17
2023-05-22T08:43:57.498Z,30.69
2023-05-22T08:46:28.363Z,30.94
2023-05-22T08:48:58.152Z,30.84
2023-05-22T08:51:31.304Z,31.34
2023-05-22T08:54:05.880Z,30.39
2023-05-22T08:56:37.330Z,30.63
2023-05-22T08:59:08.493Z,30.69
2023-05-22T09:01:36.535Z,29.85
2023-05-22T09:04:05.152Z,30.43
2023-05-22T09:06:33.576Z,30.03
2023-05-22T09:09:03.749Z,30.46
2023-05-22T09:11:31.799Z,30.77
2023-05-22T09:14:08.321Z,31.67
2023-05-22T09:16:46.208Z,31.38
2023-05-22T09:19:14.993Z,31.69
2023-05-22T09:21:44.455Z,31.65
2023-05-22T09:24:13.941Z,30.88
2023-05-22T09:26:42.611Z,31.67
2023-05-22T09:29:10.891Z,32.07
2023-05-22T09:31:43.315Z,30.77
2023-05-22T09:34:15.724Z,31.55
2023-05-22T09:36:44.221Z,31.89
2023-05-22T09:39:13.710Z,31.78
2023-05-22T09:41:41.731Z,31.26
2023-05-22T09:44:16.799Z,30.65
2023-05-22T09:46:47.819Z,31.43
2023-05-22T09:49:16.980Z,30.18
2023-05-22T09:51:48.607Z,30.43
2023-05-22T09:54:21.674Z,30.52
2023-05-22T09:57:10.589Z,31.47
2023-05-22T10:00:41.214Z,30.86
2023-05-22T10:07:29.290Z,31.15
2023-05-22T10:10:06.255Z,31.39
2023-05-22T10:12:38.858Z,31.90
2023-05-22T10:15:12.696Z,32.18
2023-05-22T10:17:42.176Z,31.36
2023-05-22T10:20:12.804Z,31.83
2023-05-22T10:22:41.647Z,31.97
2023-05-22T10:25:12.018Z,31.93
2023-05-22T10:27:40.955Z,32.27
2023-05-22T10:30:25.279Z,31.84
2023-05-22T10:33:25.431Z,31.95
2023-05-22T10:35:59.176Z,32.03
2023-05-22T10:38:48.339Z,32.66
2023-05-22T10:41:18.706Z,32.71
2023-05-22T10:43:50.039Z,32.35
2023-05-22T10:46:18.843Z,33.34
2023-05-22T10:48:49.153Z,33.72
2023-05-22T10:51:20.573Z,33.72
2023-05-22T10:53:54.261Z,32.58
2023-05-22T10:56:25.316Z,31.12
2023-05-22T10:58:59.282Z,31.92
2023-05-22T11:01:27.861Z,32.39
2023-05-22T11:04:13.489Z,32.45
2023-05-22T11:06:46.802Z,33.48
2023-05-22T11:09:22.941Z,32.61
2023-05-22T11:12:16.372Z,32.66
2023-05-22T11:14:45.243Z,33.27
2023-05-22T11:17:18.864Z,32.61
2023-05-22T11:19:58.259Z,31.89
2023-05-22T11:22:34.138Z,32.32
2023-05-22T11:25:05.243Z,31.52
2023-05-22T11:27:34.994Z,32.55
2023-05-22T11:30:03.261Z,31.81
2023-05-22T11:32:31.225Z,31.70
2023-05-22T11:34:59.220Z,32.08
2023-05-22T11:37:27.509Z,31.75
2023-05-22T11:39:58.952Z,31.93
2023-05-22T11:42:26.944Z,31.93
2023-05-22T11:44:56.914Z,31.50
2023-05-22T11:47:26.346Z,32.55
2023-05-22T11:49:54.832Z,32.35
2023-05-22T11:52:22.918Z,32.44
2023-05-22T11:54:52.553Z,32.93
2023-05-22T11:57:20.900Z,33.00
2023-05-22T11:59:49.336Z,33.07
2023-05-22T12:02:19.542Z,33.04
2023-05-22T12:04:47.945Z,33.28
2023-05-22T12:07:16.165Z,33.01
2023-05-22T12:09:44.274Z,33.54
2023-05-22T12:12:12.436Z,32.55
2023-05-22T12:14:40.457Z,32.37
2023-05-22T12:17:08.385Z,32.70
2023-05-22T12:19:41.172Z,32.58
2023-05-22T12:22:10.509Z,32.59
2023-05-22T12:24:41.958Z,32.12
2023-05-22T12:27:11.208Z,32.27
2023-05-22T12:29:39.714Z,33.31
2023-05-22T12:32:09.378Z,33.62
2023-05-22T12:34:45.078Z,32.57
2023-05-22T12:37:20.334Z,32.83
2023-05-22T12:39:56.409Z,32.51
2023-05-22T12:42:24.607Z,33.72
2023-05-22T12:44:54.778Z,34.27
2023-05-22T12:47:24.375Z,34.23
2023-05-22T12:49:54.056Z,34.23
2023-05-22T12:52:22.043Z,34.19
2023-05-22T12:54:50.886Z,33.89
2023-05-22T12:57:18.812Z,34.34
2023-05-22T12:59:46.701Z,34.08
2023-05-22T13:02:16.720Z,34.69
2023-05-22T13:04:44.649Z,32.98
2023-05-22T13:07:14.142Z,34.46
2023-05-22T13:09:42.068Z,35.61
2023-05-22T13:12:11.251Z,34.96
2023-05-22T13:14:40.465Z,34.89
2023-05-22T13:17:08.859Z,34.86
2023-05-22T13:19:36.947Z,35.08
2023-05-22T13:22:05.173Z,35.09
2023-05-22T13:24:34.454Z,34.86
2023-05-22T13:27:02.858Z,35.04
2023-05-22T13:29:30.818Z,34.56
2023-05-22T13:31:58.782Z,34.49
2023-05-22T13:34:26.787Z,34.31
2023-05-22T13:36:55.426Z,33.89
2023-05-22T13:39:23.666Z,34.44
2023-05-22T13:41:54.167Z,33.68
2023-05-22T13:44:22.219Z,33.69
2023-05-22T13:46:50.587Z,33.77
2023-05-22T13:49:18.830Z,33.33
2023-05-22T13:51:49.115Z,33.94
2023-05-22T13:54:17.026Z,33.73
2023-05-22T13:56:44.931Z,33.85
2023-05-22T13:59:14.384Z,33.81
2023-05-22T14:01:42.911Z,34.68
2023-05-22T14:04:10.948Z,34.72
2023-05-22T14:06:39.245Z,35.11
2023-05-22T14:09:09.369Z,35.42
2023-05-22T14:11:37.447Z,36.48
2023-05-22T14:14:05.413Z,36.33
2023-05-22T14:16:34.890Z,35.77
2023-05-22T14:19:02.885Z,34.99
2023-05-22T14:21:31.441Z,35.22
2023-05-22T14:23:59.419Z,35.04
2023-05-22T14:26:27.315Z,35.66
2023-05-22T14:28:55.476Z,35.27
2023-05-22T14:31:23.373Z,33.83
2023-05-22T14:33:53.857Z,34.20
2023-05-22T14:36:21.871Z,33.90
2023-05-22T14:38:49.912Z,33.76
2023-05-22T14:41:18.069Z,33.79
2023-05-22T14:43:45.979Z,33.97
2023-05-22T14:46:14.121Z,33.65
2023-05-22T14:48:42.000Z,33.09
2023-05-22T14:51:11.281Z,32.25
2023-05-22T14:53:39.167Z,32.40
2023-05-22T14:56:07.139Z,32.47
2023-05-22T14:58:35.010Z,32.31
2023-05-22T15:01:02.958Z,33.37
2023-05-22T15:03:31.493Z,33.10
2023-05-22T15:05:59.411Z,33.05
2023-05-22T15:08:28.778Z,32.88
2023-05-22T15:10:56.810Z,33.50
2023-05-22T15:13:24.783Z,33.37
2023-05-22T15:15:52.717Z,33.14
2023-05-22T15:18:23.902Z,32.70
2023-05-22T15:20:52.073Z,31.81
2023-05-22T15:23:20.606Z,32.57
2023-05-22T15:25:50.188Z,32.18
2023-05-22T15:28:18.015Z,32.73
2023-05-22T15:30:46.095Z,31.92
2023-05-22T15:33:14.385Z,32.22
2023-05-22T15:35:44.193Z,32.08
2023-05-22T15:38:13.263Z,32.13
2023-05-22T15:40:42.153Z,32.26
2023-05-22T15:43:11.563Z,32.37
2023-05-22T15:45:40.441Z,31.82
2023-05-22T15:48:08.801Z,31.97
2023-05-22T15:50:36.725Z,31.95
2023-05-22T15:53:04.644Z,31.78
2023-05-22T15:55:33.477Z,31.79
2023-05-22T15:58:02.740Z,31.92
2023-05-22T16:00:32.296Z,31.48
2023-05-22T16:03:00.482Z,31.73
2023-05-22T16:05:31.340Z,31.61
2023-05-22T16:07:59.588Z,31.87
2023-05-22T16:10:28.440Z,31.46
2023-05-22T16:12:56.544Z,31.52
2023-05-22T16:15:24.597Z,32.92
2023-05-22T16:17:54.717Z,33.08
2023-05-22T16:20:22.915Z,31.90
2023-05-22T16:22:51.275Z,31.26
2023-05-22T16:25:19.472Z,30.85
2023-05-22T16:27:47.466Z,31.11
2023-05-22T16:30:17.256Z,31.43
2023-05-22T16:32:46.455Z,30.71
2023-05-22T16:35:15.839Z,30.45
2023-05-22T16:37:43.825Z,31.08
2023-05-22T16:40:12.377Z,31.43
2023-05-22T16:42:40.418Z,31.72
2023-05-22T16:45:09.165Z,31.22
2023-05-22T16:47:37.303Z,30.50
2023-05-22T16:50:06.187Z,30.17
2023-05-22T16:52:36.619Z,29.68
2023-05-22T16:55:05.058Z,29.28
2023-05-22T16:57:33.094Z,29.15
2023-05-22T17:00:01.412Z,29.28
2023-05-22T17:02:29.734Z,28.99
2023-05-22T17:04:58.042Z,29.03
2023-05-22T17:07:26.549Z,28.81
2023-05-22T17:09:55.887Z,28.64
2023-05-22T17:12:23.873Z,28.30
2023-05-22T17:14:51.826Z,28.06
2023-05-22T17:17:19.703Z,28.35
2023-05-22T17:19:47.621Z,28.83
2023-05-22T17:22:16.258Z,28.70
2023-05-22T17:24:44.108Z,28.27
2023-05-22T17:27:24.056Z,28.32
2023-05-22T17:29:59.914Z,28.99
2023-05-22T17:32:28.303Z,28.84
2023-05-22T17:34:56.628Z,28.88
2023-05-22T17:37:24.596Z,28.28
2023-05-22T17:39:52.710Z,28.64
2023-05-22T17:42:22.127Z,28.92
2023-05-22T17:44:50.241Z,29.55
2023-05-22T17:47:18.590Z,29.08
2023-05-22T17:49:47.552Z,28.82
2023-05-22T17:52:15.562Z,28.64
2023-05-22T17:54:43.548Z,28.20
2023-05-22T17:57:11.744Z,28.25
2023-05-22T17:59:41.283Z,27.94
2023-05-22T18:02:09.995Z,27.69
2023-05-22T18:04:37.901Z,27.90
2023-05-22T18:07:06.499Z,27.95
2023-05-22T18:09:34.586Z,28.38
2023-05-22T18:12:03.764Z,28.50
2023-05-22T18:14:31.801Z,28.91
2023-05-22T18:17:01.223Z,28.74
2023-05-22T18:19:29.284Z,28.35
2023-05-22T18:21:57.284Z,29.17
2023-05-22T18:24:25.453Z,29.00
2023-05-22T18:26:54.773Z,28.54
2023-05-22T18:29:22.801Z,28.15
2023-05-22T18:31:50.970Z,27.99
2023-05-22T18:34:20.448Z,27.07
2023-05-22T18:36:49.518Z,25.94
2023-05-22T18:39:19.745Z,26.80
2023-05-22T18:41:48.268Z,26.23
2023-05-22T18:44:16.622Z,26.34
2023-05-22T18:46:44.687Z,26.22
2023-05-22T18:49:12.789Z,26.81
2023-05-22T18:51:43.387Z,26.24
2023-05-22T18:54:11.522Z,26.05
2023-05-22T18:56:39.913Z,25.75
2023-05-22T18:59:08.190Z,25.14
2023-05-22T19:01:36.411Z,25.30
2023-05-22T19:04:06.878Z,24.81
2023-05-22T19:06:35.519Z,24.89
2023-05-22T19:09:05.223Z,25.31
2023-05-22T19:11:33.487Z,24.82
2023-05-22T19:14:01.583Z,25.39
2023-05-22T19:16:29.572Z,24.61
2023-05-22T19:18:57.482Z,25.30
2023-05-22T19:21:26.384Z,24.71
2023-05-22T19:23:54.281Z,25.22
2023-05-22T19:26:23.522Z,26.11
2023-05-22T19:28:51.372Z,26.03
2023-05-22T19:31:19.147Z,25.81
2023-05-22T19:33:46.973Z,26.33
2023-05-22T19:36:14.858Z,26.10
2023-05-22T19:38:42.711Z,26.76
2023-05-22T19:41:10.643Z,25.25
2023-05-22T19:43:39.834Z,26.33
2023-05-22T19:46:08.959Z,24.91
2023-05-22T19:48:37.207Z,25.64
2023-05-22T19:51:06.892Z,25.10
2023-05-22T19:53:35.508Z,25.51
2023-05-22T19:56:03.582Z,24.62
2023-05-22T19:58:31.721Z,24.56
2023-05-22T20:01:00.977Z,24.87
2023-05-22T20:03:28.985Z,25.09
2023-05-22T20:05:56.930Z,24.95
2023-05-22T20:08:25.466Z,24.63
2023-05-22T20:10:53.616Z,24.41
2023-05-22T20:13:21.404Z,24.38
2023-05-22T20:15:51.129Z,24.06
2023-05-22T20:18:20.794Z,23.70
2023-05-22T20:20:48.650Z,23.96
2023-05-22T20:23:16.614Z,24.05
2023-05-22T20:25:44.408Z,24.35
2023-05-22T20:28:12.241Z,24.65
2023-05-22T20:30:40.088Z,24.54
2023-05-22T20:33:08.097Z,24.22
2023-05-22T20:35:37.489Z,24.46
2023-05-22T20:38:08.678Z,24.32
2023-05-22T20:40:37.740Z,24.16
2023-05-22T20:43:05.541Z,24.52
2023-05-22T20:45:33.722Z,24.47
2023-05-22T20:48:01.686Z,24.21
2023-05-22T20:50:29.542Z,24.81
2023-05-22T20:53:00.124Z,25.31
2023-05-22T20:55:27.979Z,24.32
2023-05-22T20:57:55.806Z,24.96
2023-05-22T21:00:24.216Z,25.14
2023-05-22T21:02:52.784Z,24.79
2023-05-22T21:05:20.630Z,24.49
2023-05-22T21:07:48.402Z,24.52
2023-05-22T21:10:17.686Z,24.37
2023-05-22T21:12:46.076Z,24.83
2023-05-22T21:15:13.867Z,25.02
2023-05-22T21:17:41.734Z,24.74
2023-05-22T21:20:10.523Z,24.98
2023-05-22T21:22:38.443Z,25.29
2023-05-22T21:25:07.225Z,25.05
2023-05-22T21:27:36.507Z,24.61
2023-05-22T21:30:04.655Z,24.90
2023-05-22T21:32:32.620Z,25.01
2023-05-22T21:35:00.605Z,25.00
2023-05-22T21:37:28.460Z,24.76
2023-05-22T21:39:56.243Z,25.53
2023-05-22T21:42:26.207Z,25.30
2023-05-22T21:44:55.850Z,25.76
2023-05-22T21:47:23.723Z,25.92
2023-05-22T21:49:51.762Z,25.85
2023-05-22T21:52:19.562Z,25.66
2023-05-22T21:54:47.545Z,25.71
2023-05-22T21:57:15.396Z,25.12
2023-05-22T21:59:43.403Z,25.47
2023-05-22T22:02:12.951Z,25.49
2023-05-22T22:04:40.908Z,24.87
2023-05-22T22:07:08.921Z,24.58
2023-05-22T22:09:36.857Z,25.23
2023-05-22T22:12:05.014Z,25.39
2023-05-22T22:14:32.998Z,25.62
2023-05-22T22:17:00.934Z,25.66
2023-05-22T22:19:30.403Z,25.64
2023-05-22T22:21:58.481Z,25.82
2023-05-22T22:24:26.461Z,25.98
2023-05-22T22:26:54.963Z,25.41
2023-05-22T22:29:22.815Z,25.30
2023-05-22T22:31:50.828Z,25.04
2023-05-22T22:34:18.733Z,25.03
2023-05-22T22:36:47.929Z,25.45
2023-05-22T22:39:15.901Z,25.72
2023-05-22T22:41:44.064Z,25.63
2023-05-22T22:44:12.041Z,26.09
2023-05-22T22:46:40.018Z,25.91
2023-05-22T22:49:08.701Z,24.81
2023-05-22T22:51:36.712Z,24.95
2023-05-22T22:54:06.168Z,24.97
2023-05-22T22:56:34.418Z,25.49
2023-05-22T22:59:02.320Z,25.72
2023-05-22T23:01:30.169Z,25.00
2023-05-22T23:03:58.027Z,25.19
2023-05-22T23:06:29.550Z,24.94
2023-05-22T23:08:58.775Z,25.01
2023-05-22T23:11:34.289Z,25.32
2023-05-22T23:14:03.751Z,25.25
2023-05-22T23:16:35.836Z,25.12
2023-05-22T23:19:04.929Z,24.95
2023-05-22T23:21:33.315Z,24.76
2023-05-22T23:24:01.912Z,24.87
2023-05-22T23:26:31.570Z,24.39
2023-05-22T23:28:59.532Z,24.77
2023-05-22T23:31:30.501Z,24.50
2023-05-22T23:33:59.694Z,24.35
2023-05-22T23:36:27.642Z,24.88
2023-05-22T23:38:55.780Z,25.09
2023-05-22T23:41:24.433Z,24.77
2023-05-22T23:43:53.611Z,24.92
2023-05-22T23:46:21.807Z,24.90
2023-05-22T23:48:49.645Z,25.04
2023-05-22T23:51:17.405Z,25.36
2023-05-22T23:53:46.025Z,25.07
2023-05-22T23:56:13.975Z,25.17
2023-05-22T23:58:41.791Z,25.23
